Vg 117 Kungsvik — SBTH — position and weather

sailwx.info

Track history (hours):
 
Tides and Currents Weather Stations Pressure Air Temp Water Temp Dewpoint Dewpoint Depression Visibility Wind Speed Wind Dir Waves Ship Positions

Vg 117 Kungsvik

Last reported at 2014-Jul-31 00:33 UTC. Time now 2014-Jul-31 01:16 UTC.
Position N 57°00' E 012°10'.

Length 17 m.

Type: Fishing. MMSI: 266137000.

Date/timePositionNaut miles runAvg speedWind from/ knotsBaromVisibWave heightAir tempDewpointWater temp
2014-Jul-31 00:33N 57°00' E 012°10'2 1.6
2014-Jul-30 23:33N 57°02' E 012°12'0 0.3
2014-Jul-30 22:32N 57°02' E 012°11'2 2.2
2014-Jul-30 21:33N 57°00' E 012°08'3 2.6
2014-Jul-30 20:33N 56°59' E 012°04'1 1.2
2014-Jul-30 19:33N 56°60' E 012°02'2 2.4
2014-Jul-30 18:32N 57°01' E 012°06'4 3.8
2014-Jul-30 17:33N 57°03' E 012°12'2 2.3
2014-Jul-30 16:29N 57°04' E 012°16'0 0.0
2014-Jul-30 15:23N 57°04' E 012°16'0 0.0
2014-Jul-30 14:29N 57°04' E 012°16'0 0.0
2014-Jul-30 13:29N 57°04' E 012°16'0 0.0
2014-Jul-30 12:23N 57°04' E 012°16'0 0.0
2014-Jul-30 11:23N 57°04' E 012°16'0 0.0
2014-Jul-30 10:29N 57°04' E 012°16'0 0.0
2014-Jul-30 09:23N 57°04' E 012°16'0 0.0
2014-Jul-30 08:29N 57°04' E 012°16'0 0.0
2014-Jul-30 07:29N 57°04' E 012°16'2 2.2
2014-Jul-30 06:32N 57°02' E 012°15'8 7.5
2014-Jul-30 05:31N 56°54' E 012°11'5 5.7
2014-Jul-30 04:33N 56°49' E 012°07'2 2.2
2014-Jul-30 03:33N 56°50' E 012°03'2 2.2
2014-Jul-30 02:31N 56°50' E 011°59'4 2.0
2014-Jul-30 00:19N 56°45' E 012°02'2 2.3
2014-Jul-29 23:33N 56°47' E 012°01'2 1.2
2014-Jul-29 22:14N 56°46' E 012°02'2 2.3
2014-Jul-29 21:33N 56°45' E 011°59'2 2.5
2014-Jul-29 20:32N 56°48' E 011°59'3 2.6
2014-Jul-29 19:30N 56°51' E 011°59'2 2.6
2014-Jul-29 18:33N 56°52' E 012°03'7 6.5
2014-Jul-29 17:33N 56°58' E 012°09'7 0.8
2014-Jul-29 08:21N 57°04' E 012°16'0 0.0
2014-Jul-29 07:27N 57°04' E 012°16'0 0.0
2014-Jul-29 06:15N 57°04' E 012°16'4 4.8
2014-Jul-29 05:30N 57°02' E 012°11'2 2.3
2014-Jul-29 04:30N 57°01' E 012°07'2 2.0
2014-Jul-29 03:33N 57°02' E 012°04'2 2.0
2014-Jul-29 02:32N 56°60' E 012°03'2 2.5
2014-Jul-29 01:33N 57°00' E 012°07'2 1.8
2014-Jul-29 00:30N 57°01' E 012°10'2 2.5
2014-Jul-28 23:32N 56°60' E 012°06'1 1.2
2014-Jul-28 22:33N 57°00' E 012°08'2 1.5
2014-Jul-28 21:33N 57°02' E 012°07'2 2.1
2014-Jul-28 20:30N 57°00' E 012°05'2 2.4
2014-Jul-28 19:31N 57°01' E 012°01'2 2.4
2014-Jul-28 18:32N 57°02' E 012°05'5 4.9
2014-Jul-28 17:32N 57°03' E 012°14'1 1.2
2014-Jul-28 16:29N 57°04' E 012°16'0 0.0
2014-Jul-28 15:23N 57°04' E 012°16'0 0.0
2014-Jul-28 14:29N 57°04' E 012°16'0 0.0
2014-Jul-28 12:29N 57°04' E 012°16'0 0.0
2014-Jul-28 11:23N 57°04' E 012°16'0 0.0
2014-Jul-28 10:29N 57°04' E 012°16'0 0.0
2014-Jul-28 09:23N 57°04' E 012°16'0 0.0
2014-Jul-28 08:29N 57°04' E 012°16'0 0.0
2014-Jul-28 07:23N 57°04' E 012°16'0 0.2
2014-Jul-28 06:08N 57°03' E 012°16'3 4.6
2014-Jul-28 05:25N 57°03' E 012°10'3 2.6
2014-Jul-28 04:17N 57°01' E 012°05'2 2.4
2014-Jul-28 03:33N 56°60' E 012°03'2 2.0
2014-Jul-28 02:34N 57°01' E 012°05'2 1.9
2014-Jul-28 01:30N 57°00' E 012°08'2 2.5
2014-Jul-28 00:33N 56°60' E 012°04'2 2.4
2014-Jul-27 23:32N 56°59' E 012°00'0 0.5
2014-Jul-27 22:33N 56°59' E 012°01'2 2.4
2014-Jul-27 21:33N 56°60' E 012°05'2 1.9
2014-Jul-27 20:31N 57°01' E 012°08'3 2.6
2014-Jul-27 19:32N 56°60' E 012°04'2 1.7
2014-Jul-27 18:30N 57°01' E 012°04'4 3.6
2014-Jul-27 17:31N 57°03' E 012°11'3 1.0
2014-Jul-27 14:07N 57°04' E 012°16'0 0.0
2014-Jul-27 12:07N 57°04' E 012°16'0 0.0
2014-Jul-27 06:31N 57°04' E 012°16'0 0.0
2014-Jul-27 05:25N 57°04' E 012°16'0 0.0
2014-Jul-27 04:31N 57°04' E 012°16'0 0.0
2014-Jul-27 02:13N 57°04' E 012°16'0 0.0
2014-Jul-27 01:25N 57°04' E 012°16'0 0.0
2014-Jul-27 00:31N 57°04' E 012°16'0 0.0
2014-Jul-26 23:13N 57°04' E 012°16'0 0.0
2014-Jul-26 21:25N 57°04' E 012°16'0 0.0
2014-Jul-26 20:25N 57°04' E 012°16'0 0.0
2014-Jul-26 19:31N 57°04' E 012°16'0 0.0
2014-Jul-26 13:19N 57°04' E 012°16'0 0.0
2014-Jul-26 06:31N 57°04' E 012°16'0 0.0
2014-Jul-26 03:31N 57°04' E 012°16'0 0.0
2014-Jul-25 23:07N 57°04' E 012°16'0 0.0
2014-Jul-25 22:13N 57°04' E 012°16'0 0.0
2014-Jul-25 19:31N 57°04' E 012°16'0 0.0
2014-Jul-25 14:25N 57°04' E 012°16'0 0.0
2014-Jul-25 13:31N 57°04' E 012°16'0 0.0
2014-Jul-25 08:31N 57°04' E 012°16'0 0.0
2014-Jul-25 07:31N 57°04' E 012°16'0 0.0
2014-Jul-25 06:31N 57°04' E 012°16'1 1.3
2014-Jul-25 05:28N 57°03' E 012°14'4 3.9
2014-Jul-25 04:31N 57°01' E 012°09'2 1.6
2014-Jul-25 03:33N 57°01' E 012°06'0 0.3
2014-Jul-25 02:32N 57°01' E 012°06'3 2.5
2014-Jul-25 01:24N 56°60' E 012°02'1 1.6
2014-Jul-25 00:33N 56°59' E 012°04'3 2.2
2014-Jul-24 23:21N 57°01' E 012°08'2 1.9
2014-Jul-24 22:26N 56°60' E 012°06'2 2.2
2014-Jul-24 21:32N 56°59' E 012°02'2 2.0
2014-Jul-24 20:30N 57°00' E 012°05'1 1.2
2014-Jul-24 19:33N 57°00' E 012°03'2 2.0
2014-Jul-24 18:32N 57°01' E 012°06'4 4.0
2014-Jul-24 17:32N 57°03' E 012°13'2 2.0
2014-Jul-24 16:30N 57°04' E 012°16'0 0.0
2014-Jul-24 15:12N 57°04' E 012°16'0 0.0
2014-Jul-24 14:30N 57°04' E 012°16'0 0.0
2014-Jul-24 13:30N 57°04' E 012°16'0 0.0
2014-Jul-24 12:30N 57°04' E 012°16'0 0.0
2014-Jul-24 11:30N 57°04' E 012°16'0 0.0
2014-Jul-24 10:30N 57°04' E 012°16'0 0.0
2014-Jul-24 09:30N 57°04' E 012°16'0 0.0
2014-Jul-24 08:24N 57°04' E 012°16'0 0.0
2014-Jul-24 07:30N 57°04' E 012°16'0 0.0
2014-Jul-24 06:30N 57°04' E 012°16'1 1.3
2014-Jul-24 05:34N 57°03' E 012°14'6 5.7
2014-Jul-24 04:31N 57°00' E 012°04'1 1.4
2014-Jul-24 03:33N 57°02' E 012°06'2 1.7
2014-Jul-24 02:22N 56°60' E 012°06'2 2.5
2014-Jul-24 01:33N 56°60' E 012°02'2 1.5
2014-Jul-24 00:30N 56°59' E 012°05'2 2.5
2014-Jul-23 23:33N 57°01' E 012°08'1 1.2
2014-Jul-23 22:33N 56°60' E 012°06'2 2.2
2014-Jul-23 21:27N 56°59' E 012°02'2 1.9
2014-Jul-23 20:31N 56°60' E 012°05'1 1.3
2014-Jul-23 19:33N 57°00' E 012°03'2 2.2
2014-Jul-23 18:24N 57°01' E 012°07'3 3.8
2014-Jul-23 17:33N 57°03' E 012°12'2 2.1
2014-Jul-23 16:27N 57°04' E 012°16'0 0.0
2014-Jul-23 15:33N 57°04' E 012°16'0 0.0
2014-Jul-23 14:27N 57°04' E 012°16'0 0.0
2014-Jul-23 13:27N 57°04' E 012°16'0 0.0
2014-Jul-23 12:09N 57°04' E 012°16'0 0.0
2014-Jul-23 11:27N 57°04' E 012°16'0 0.0
2014-Jul-23 10:33N 57°04' E 012°16'0 0.0
2014-Jul-23 09:21N 57°04' E 012°16'0 0.0
2014-Jul-23 08:33N 57°04' E 012°16'0 0.0
2014-Jul-23 07:33N 57°04' E 012°16'0 0.0
2014-Jul-23 06:27N 57°04' E 012°16'4 4.5
2014-Jul-23 05:33N 57°04' E 012°09'7 5.0
2014-Jul-23 04:13N 57°06' E 011°57'2 2.5
2014-Jul-23 03:32N 57°07' E 011°56'5 1.6
2014-Jul-23 00:30N 57°03' E 011°52'2 2.0
2014-Jul-22 23:33N 57°01' E 011°51'2 1.5
2014-Jul-22 22:33N 56°60' E 011°49'2 2.0
2014-Jul-22 21:30N 57°02' E 011°47'2 2.4
2014-Jul-22 20:32N 57°03' E 011°50'2 2.4
2014-Jul-22 19:32N 57°03' E 011°55'3 2.6
2014-Jul-22 18:31N 57°03' E 011°60'8 8.1
2014-Jul-22 17:28N 57°03' E 012°15'1 0.5
2014-Jul-22 16:18N 57°04' E 012°16'0 0.0
2014-Jul-22 15:12N 57°04' E 012°16'0 0.0
2014-Jul-22 14:30N 57°04' E 012°16'0 0.0
2014-Jul-22 13:18N 57°04' E 012°16'0 0.0
2014-Jul-22 12:12N 57°04' E 012°16'0 0.0
2014-Jul-22 11:30N 57°04' E 012°16'0 0.0
2014-Jul-22 10:06N 57°04' E 012°16'0 0.0
2014-Jul-22 09:24N 57°04' E 012°16'0 0.0
2014-Jul-22 08:18N 57°04' E 012°16'0 0.0
2014-Jul-22 07:24N 57°04' E 012°16'0 0.0
2014-Jul-22 06:21N 57°04' E 012°16'6 5.9
2014-Jul-22 05:24N 57°03' E 012°06'6 5.9
2014-Jul-22 04:27N 57°03' E 011°56'2 2.0
2014-Jul-22 03:31N 57°03' E 011°53'2 2.5
2014-Jul-22 02:32N 57°03' E 011°48'5 2.3
2014-Jul-22 00:14N 56°58' E 011°47'0 0.6
2014-Jul-21 23:31N 56°58' E 011°48'1 1.1
2014-Jul-21 22:33N 56°59' E 011°46'2 2.3
2014-Jul-21 21:33N 57°01' E 011°46'2 2.4
2014-Jul-21 20:33N 57°02' E 011°49'1 2.6
2014-Jul-21 20:18N 57°03' E 011°50'2 2.6
2014-Jul-21 19:33N 57°03' E 011°54'3 2.5
2014-Jul-21 18:33N 57°03' E 011°58'7 6.2
2014-Jul-21 17:28N 57°03' E 012°11'3 1.3
2014-Jul-21 15:04N 57°04' E 012°16'1 0.2
2014-Jul-21 06:16N 57°03' E 012°14'6 7.3
2014-Jul-21 05:26N 57°03' E 012°03'5 3.9
2014-Jul-21 04:12N 57°03' E 011°54'2 2.6
2014-Jul-21 03:17N 57°02' E 011°50'  
Track history (hours):
 
Tides and Currents Weather Stations Pressure Air Temp Water Temp Dewpoint Dewpoint Depression Visibility Wind Speed Wind Dir Waves Ship Positions

Vg 117 Kungsvik

Last reported at 2014-Jul-31 00:33 UTC. Time now 2014-Jul-31 01:16 UTC.
Position N 57°00' E 012°10'.

Length 17 m.

Type: Fishing. MMSI: 266137000.

Date/timePositionNaut miles runAvg speedWind from/ knotsBaromVisibWave heightAir tempDewpointWater temp
2014-Jul-31 00:33N 57°00' E 012°10'2 1.6
2014-Jul-30 23:33N 57°02' E 012°12'0 0.3
2014-Jul-30 22:32N 57°02' E 012°11'2 2.2
2014-Jul-30 21:33N 57°00' E 012°08'3 2.6
2014-Jul-30 20:33N 56°59' E 012°04'1 1.2
2014-Jul-30 19:33N 56°60' E 012°02'2 2.4
2014-Jul-30 18:32N 57°01' E 012°06'4 3.8
2014-Jul-30 17:33N 57°03' E 012°12'2 2.3
2014-Jul-30 16:29N 57°04' E 012°16'0 0.0
2014-Jul-30 15:23N 57°04' E 012°16'0 0.0
2014-Jul-30 14:29N 57°04' E 012°16'0 0.0
2014-Jul-30 13:29N 57°04' E 012°16'0 0.0
2014-Jul-30 12:23N 57°04' E 012°16'0 0.0
2014-Jul-30 11:23N 57°04' E 012°16'0 0.0
2014-Jul-30 10:29N 57°04' E 012°16'0 0.0
2014-Jul-30 09:23N 57°04' E 012°16'0 0.0
2014-Jul-30 08:29N 57°04' E 012°16'0 0.0
2014-Jul-30 07:29N 57°04' E 012°16'2 2.2
2014-Jul-30 06:32N 57°02' E 012°15'8 7.5
2014-Jul-30 05:31N 56°54' E 012°11'5 5.7
2014-Jul-30 04:33N 56°49' E 012°07'2 2.2
2014-Jul-30 03:33N 56°50' E 012°03'2 2.2
2014-Jul-30 02:31N 56°50' E 011°59'4 2.0
2014-Jul-30 00:19N 56°45' E 012°02'2 2.3
2014-Jul-29 23:33N 56°47' E 012°01'2 1.2
2014-Jul-29 22:14N 56°46' E 012°02'2 2.3
2014-Jul-29 21:33N 56°45' E 011°59'2 2.5
2014-Jul-29 20:32N 56°48' E 011°59'3 2.6
2014-Jul-29 19:30N 56°51' E 011°59'2 2.6
2014-Jul-29 18:33N 56°52' E 012°03'7 6.5
2014-Jul-29 17:33N 56°58' E 012°09'7 0.8
2014-Jul-29 08:21N 57°04' E 012°16'0 0.0
2014-Jul-29 07:27N 57°04' E 012°16'0 0.0
2014-Jul-29 06:15N 57°04' E 012°16'4 4.8
2014-Jul-29 05:30N 57°02' E 012°11'2 2.3
2014-Jul-29 04:30N 57°01' E 012°07'2 2.0
2014-Jul-29 03:33N 57°02' E 012°04'2 2.0
2014-Jul-29 02:32N 56°60' E 012°03'2 2.5
2014-Jul-29 01:33N 57°00' E 012°07'2 1.8
2014-Jul-29 00:30N 57°01' E 012°10'2 2.5
2014-Jul-28 23:32N 56°60' E 012°06'1 1.2
2014-Jul-28 22:33N 57°00' E 012°08'2 1.5
2014-Jul-28 21:33N 57°02' E 012°07'2 2.1
2014-Jul-28 20:30N 57°00' E 012°05'2 2.4
2014-Jul-28 19:31N 57°01' E 012°01'2 2.4
2014-Jul-28 18:32N 57°02' E 012°05'5 4.9
2014-Jul-28 17:32N 57°03' E 012°14'1 1.2
2014-Jul-28 16:29N 57°04' E 012°16'0 0.0
2014-Jul-28 15:23N 57°04' E 012°16'0 0.0
2014-Jul-28 14:29N 57°04' E 012°16'0 0.0
2014-Jul-28 12:29N 57°04' E 012°16'0 0.0
2014-Jul-28 11:23N 57°04' E 012°16'0 0.0
2014-Jul-28 10:29N 57°04' E 012°16'0 0.0
2014-Jul-28 09:23N 57°04' E 012°16'0 0.0
2014-Jul-28 08:29N 57°04' E 012°16'0 0.0
2014-Jul-28 07:23N 57°04' E 012°16'0 0.2
2014-Jul-28 06:08N 57°03' E 012°16'3 4.6
2014-Jul-28 05:25N 57°03' E 012°10'3 2.6
2014-Jul-28 04:17N 57°01' E 012°05'2 2.4
2014-Jul-28 03:33N 56°60' E 012°03'2 2.0
2014-Jul-28 02:34N 57°01' E 012°05'2 1.9
2014-Jul-28 01:30N 57°00' E 012°08'2 2.5
2014-Jul-28 00:33N 56°60' E 012°04'2 2.4
2014-Jul-27 23:32N 56°59' E 012°00'0 0.5
2014-Jul-27 22:33N 56°59' E 012°01'2 2.4
2014-Jul-27 21:33N 56°60' E 012°05'2 1.9
2014-Jul-27 20:31N 57°01' E 012°08'3 2.6
2014-Jul-27 19:32N 56°60' E 012°04'2 1.7
2014-Jul-27 18:30N 57°01' E 012°04'4 3.6
2014-Jul-27 17:31N 57°03' E 012°11'3 1.0
2014-Jul-27 14:07N 57°04' E 012°16'0 0.0
2014-Jul-27 12:07N 57°04' E 012°16'0 0.0
2014-Jul-27 06:31N 57°04' E 012°16'0 0.0
2014-Jul-27 05:25N 57°04' E 012°16'0 0.0
2014-Jul-27 04:31N 57°04' E 012°16'0 0.0
2014-Jul-27 02:13N 57°04' E 012°16'0 0.0
2014-Jul-27 01:25N 57°04' E 012°16'0 0.0
2014-Jul-27 00:31N 57°04' E 012°16'0 0.0
2014-Jul-26 23:13N 57°04' E 012°16'0 0.0
2014-Jul-26 21:25N 57°04' E 012°16'0 0.0
2014-Jul-26 20:25N 57°04' E 012°16'0 0.0
2014-Jul-26 19:31N 57°04' E 012°16'0 0.0
2014-Jul-26 13:19N 57°04' E 012°16'0 0.0
2014-Jul-26 06:31N 57°04' E 012°16'0 0.0
2014-Jul-26 03:31N 57°04' E 012°16'0 0.0
2014-Jul-25 23:07N 57°04' E 012°16'0 0.0
2014-Jul-25 22:13N 57°04' E 012°16'0 0.0
2014-Jul-25 19:31N 57°04' E 012°16'0 0.0
2014-Jul-25 14:25N 57°04' E 012°16'0 0.0
2014-Jul-25 13:31N 57°04' E 012°16'0 0.0
2014-Jul-25 08:31N 57°04' E 012°16'0 0.0
2014-Jul-25 07:31N 57°04' E 012°16'0 0.0
2014-Jul-25 06:31N 57°04' E 012°16'1 1.3
2014-Jul-25 05:28N 57°03' E 012°14'4 3.9
2014-Jul-25 04:31N 57°01' E 012°09'2 1.6
2014-Jul-25 03:33N 57°01' E 012°06'0 0.3
2014-Jul-25 02:32N 57°01' E 012°06'3 2.5
2014-Jul-25 01:24N 56°60' E 012°02'1 1.6
2014-Jul-25 00:33N 56°59' E 012°04'3 2.2
2014-Jul-24 23:21N 57°01' E 012°08'2 1.9
2014-Jul-24 22:26N 56°60' E 012°06'2 2.2
2014-Jul-24 21:32N 56°59' E 012°02'2 2.0
2014-Jul-24 20:30N 57°00' E 012°05'1 1.2
2014-Jul-24 19:33N 57°00' E 012°03'2 2.0
2014-Jul-24 18:32N 57°01' E 012°06'4 4.0
2014-Jul-24 17:32N 57°03' E 012°13'2 2.0
2014-Jul-24 16:30N 57°04' E 012°16'0 0.0
2014-Jul-24 15:12N 57°04' E 012°16'0 0.0
2014-Jul-24 14:30N 57°04' E 012°16'0 0.0
2014-Jul-24 13:30N 57°04' E 012°16'0 0.0
2014-Jul-24 12:30N 57°04' E 012°16'0 0.0
2014-Jul-24 11:30N 57°04' E 012°16'0 0.0
2014-Jul-24 10:30N 57°04' E 012°16'0 0.0
2014-Jul-24 09:30N 57°04' E 012°16'0 0.0
2014-Jul-24 08:24N 57°04' E 012°16'0 0.0
2014-Jul-24 07:30N 57°04' E 012°16'0 0.0
2014-Jul-24 06:30N 57°04' E 012°16'1 1.3
2014-Jul-24 05:34N 57°03' E 012°14'6 5.7
2014-Jul-24 04:31N 57°00' E 012°04'1 1.4
2014-Jul-24 03:33N 57°02' E 012°06'2 1.7
2014-Jul-24 02:22N 56°60' E 012°06'2 2.5
2014-Jul-24 01:33N 56°60' E 012°02'2 1.5
2014-Jul-24 00:30N 56°59' E 012°05'2 2.5
2014-Jul-23 23:33N 57°01' E 012°08'1 1.2
2014-Jul-23 22:33N 56°60' E 012°06'2 2.2
2014-Jul-23 21:27N 56°59' E 012°02'2 1.9
2014-Jul-23 20:31N 56°60' E 012°05'1 1.3
2014-Jul-23 19:33N 57°00' E 012°03'2 2.2
2014-Jul-23 18:24N 57°01' E 012°07'3 3.8
2014-Jul-23 17:33N 57°03' E 012°12'2 2.1
2014-Jul-23 16:27N 57°04' E 012°16'0 0.0
2014-Jul-23 15:33N 57°04' E 012°16'0 0.0
2014-Jul-23 14:27N 57°04' E 012°16'0 0.0
2014-Jul-23 13:27N 57°04' E 012°16'0 0.0
2014-Jul-23 12:09N 57°04' E 012°16'0 0.0
2014-Jul-23 11:27N 57°04' E 012°16'0 0.0
2014-Jul-23 10:33N 57°04' E 012°16'0 0.0
2014-Jul-23 09:21N 57°04' E 012°16'0 0.0
2014-Jul-23 08:33N 57°04' E 012°16'0 0.0
2014-Jul-23 07:33N 57°04' E 012°16'0 0.0
2014-Jul-23 06:27N 57°04' E 012°16'4 4.5
2014-Jul-23 05:33N 57°04' E 012°09'7 5.0
2014-Jul-23 04:13N 57°06' E 011°57'2 2.5
2014-Jul-23 03:32N 57°07' E 011°56'5 1.6
2014-Jul-23 00:30N 57°03' E 011°52'2 2.0
2014-Jul-22 23:33N 57°01' E 011°51'2 1.5
2014-Jul-22 22:33N 56°60' E 011°49'2 2.0
2014-Jul-22 21:30N 57°02' E 011°47'2 2.4
2014-Jul-22 20:32N 57°03' E 011°50'2 2.4
2014-Jul-22 19:32N 57°03' E 011°55'3 2.6
2014-Jul-22 18:31N 57°03' E 011°60'8 8.1
2014-Jul-22 17:28N 57°03' E 012°15'1 0.5
2014-Jul-22 16:18N 57°04' E 012°16'0 0.0
2014-Jul-22 15:12N 57°04' E 012°16'0 0.0
2014-Jul-22 14:30N 57°04' E 012°16'0 0.0
2014-Jul-22 13:18N 57°04' E 012°16'0 0.0
2014-Jul-22 12:12N 57°04' E 012°16'0 0.0
2014-Jul-22 11:30N 57°04' E 012°16'0 0.0
2014-Jul-22 10:06N 57°04' E 012°16'0 0.0
2014-Jul-22 09:24N 57°04' E 012°16'0 0.0
2014-Jul-22 08:18N 57°04' E 012°16'0 0.0
2014-Jul-22 07:24N 57°04' E 012°16'0 0.0
2014-Jul-22 06:21N 57°04' E 012°16'6 5.9
2014-Jul-22 05:24N 57°03' E 012°06'6 5.9
2014-Jul-22 04:27N 57°03' E 011°56'2 2.0
2014-Jul-22 03:31N 57°03' E 011°53'2 2.5
2014-Jul-22 02:32N 57°03' E 011°48'5 2.3
2014-Jul-22 00:14N 56°58' E 011°47'0 0.6
2014-Jul-21 23:31N 56°58' E 011°48'1 1.1
2014-Jul-21 22:33N 56°59' E 011°46'2 2.3
2014-Jul-21 21:33N 57°01' E 011°46'2 2.4
2014-Jul-21 20:33N 57°02' E 011°49'1 2.6
2014-Jul-21 20:18N 57°03' E 011°50'2 2.6
2014-Jul-21 19:33N 57°03' E 011°54'3 2.5
2014-Jul-21 18:33N 57°03' E 011°58'7 6.2
2014-Jul-21 17:28N 57°03' E 012°11'3 1.3
2014-Jul-21 15:04N 57°04' E 012°16'1 0.2
2014-Jul-21 06:16N 57°03' E 012°14'6 7.3
2014-Jul-21 05:26N 57°03' E 012°03'5 3.9
2014-Jul-21 04:12N 57°03' E 011°54'2 2.6
2014-Jul-21 03:17N 57°02' E 011°50'  

Dump ship's entire track history